Idamay, WV (26576)

2:51 PM EST on February 08, 2016 (GMT -0500)
Pleasant Valley Station | | Change Station
CLOSE
Current Station
Personal Weather Station
Location: Fairmont, WV
Elevation: 1047 ft
Nearby Weather Stations
Active Advisory: Winter Weather Advisory

Elev 1047 ft 39.44 °N, 80.17 °W | Updated 5 minutes ago

Overcast
Overcast
37.3 °F
Feels Like 34 °F
N
4.0
Wind Variable Wind from SSW
Gusts 9.0 mph

Today
High -- | Low -- °F
--% Chance of Precip.
Yesterday
High -- | Low -- °F
Precip. -- in
Pressure 29.62 in
Visibility 5.0 miles
Clouds Mostly Cloudy 900 ft
Overcast 1600 ft
Windchill 34 °F
Dew Point 36 °F
Humidity 95%
Rainfall 0.05 in
Snow Depth Not available.
7:21 AM 5:48 PM
New Moon, 0% visible
METAR KCKB 081853Z 21007KT 5SM -RA BR BKN009 OVC016 02/01 A2960 RMK AO2 SLP029 P0004 T00220011
Pressure 29.62 in
Visibility 5.0 miles
Clouds Mostly Cloudy 900 ft
Overcast 1600 ft
Windchill 34 °F
Dew Point 36 °F
Humidity 95%
Rainfall 0.05 in
Snow Depth Not available.
7:21 AM 5:48 PM
New Moon, 0% visible
METAR KCKB 081853Z 21007KT 5SM -RA BR BKN009 OVC016 02/01 A2960 RMK AO2 SLP029 P0004 T00220011

10-Day Weather Forecast

Almanac

Astronomy

Feb. 08, 2016 Rise Set
Actual Time
Civil Twilight
Nautical Twilight
Astronomical Twilight
Moon
Length of Visible Light
Length of Day
Tomorrow will be .
, % of the Moon is Illuminated

Today's Extremes

State Highs State Lows

Community

WunderPhotos

Upload Photos

1,891,499 photos uploaded!

WunderBlog® & News

Nearby

Air Quality

  Air Quality AQ Index Pollutant
Not available.

Snow Depth

Station Depth Elevation

Earthquake Activity

City Distance Mag. Time & Date
Minimum magnitude displayed is 2.5.

Coastal Water Temperatures

Place Temperature

Stations

Nearby Weather Stations

Station Location Temp. Windchill Dew Point Humidity Wind Precip. Elev Updated Type
                   

Watches & Warnings

Winter Weather Advisory
Issued: 2:37 PM EST Feb. 8, 2016 – National Weather Service

... Winter Weather Advisory remains in effect from 7 PM this
evening to 7 am EST Wednesday...

* snow accumulation... 4 to 6 inches through Wednesday.

* Snow beginning... this evening.

* Period of most intense snow... later tonight into Tuesday.

* Snow ending... snow showers will gradually taper down through
Tuesday night.

* Impacts... hazardous travel conditions are expected due to snow.

Precautionary/preparedness actions...

A Winter Weather Advisory for snow means that periods of snow
will cause primarily travel difficulties. Be prepared for snow
covered roads and limited visibilities... and use caution while
driving.